createdAt,value
2023-01-19T00:01:34.280Z,19.43
2023-01-19T00:04:51.361Z,19.65
2023-01-19T00:08:09.992Z,19.40
2023-01-19T00:11:26.623Z,20.65
2023-01-19T00:14:42.878Z,20.63
2023-01-19T00:17:59.377Z,20.25
2023-01-19T00:21:16.604Z,21.23
2023-01-19T00:24:33.635Z,20.40
2023-01-19T00:27:51.251Z,20.70
2023-01-19T00:31:07.897Z,20.33
2023-01-19T00:34:27.695Z,20.40
2023-01-19T00:37:46.041Z,20.88
2023-01-19T00:41:03.152Z,20.40
2023-01-19T00:44:20.978Z,22.85
2023-01-19T00:47:40.053Z,20.98
2023-01-19T00:50:58.225Z,21.38
2023-01-19T00:54:14.532Z,22.68
2023-01-19T00:57:30.858Z,24.60
2023-01-19T01:00:47.123Z,22.78
2023-01-19T01:04:03.620Z,22.40
2023-01-19T01:07:19.943Z,22.28
2023-01-19T01:10:38.164Z,22.63
2023-01-19T01:13:54.431Z,21.98
2023-01-19T01:17:12.114Z,20.90
2023-01-19T01:20:31.802Z,23.33
2023-01-19T01:23:48.099Z,24.40
2023-01-19T01:27:04.664Z,24.50
2023-01-19T01:30:23.665Z,24.83
2023-01-19T01:33:42.008Z,21.45
2023-01-19T01:36:58.921Z,23.90
2023-01-19T01:40:22.137Z,24.38
2023-01-19T01:43:54.228Z,27.13
2023-01-19T01:47:11.436Z,26.78
2023-01-19T01:50:32.462Z,26.78
2023-01-19T01:53:50.615Z,26.43
2023-01-19T01:57:12.138Z,26.88
2023-01-19T02:00:37.159Z,27.48
2023-01-19T02:03:53.484Z,28.95
2023-01-19T02:07:23.714Z,27.15
2023-01-19T02:10:54.521Z,27.88
2023-01-19T02:14:13.892Z,27.05
2023-01-19T02:17:30.820Z,28.18
2023-01-19T02:20:51.946Z,28.58
2023-01-19T02:24:10.899Z,28.95
2023-01-19T02:27:28.697Z,32.68
2023-01-19T02:30:47.236Z,32.50
2023-01-19T02:34:05.690Z,31.83
2023-01-19T02:37:24.219Z,31.45
2023-01-19T02:40:41.725Z,31.90
2023-01-19T02:43:59.807Z,30.73
2023-01-19T02:47:16.296Z,30.40
2023-01-19T02:50:58.187Z,32.83
2023-01-19T02:54:51.765Z,35.85
2023-01-19T02:58:13.701Z,34.28
2023-01-19T03:01:36.392Z,34.23
2023-01-19T03:05:04.982Z,34.23
2023-01-19T03:08:27.394Z,33.25
2023-01-19T03:11:47.564Z,33.75
2023-01-19T03:15:07.685Z,33.58
2023-01-19T03:18:28.811Z,33.03
2023-01-19T03:21:51.088Z,33.13
2023-01-19T03:25:09.541Z,35.00
2023-01-19T03:28:28.954Z,34.23
2023-01-19T03:31:49.578Z,32.68
2023-01-19T03:35:11.254Z,33.98
2023-01-19T03:38:32.407Z,34.40
2023-01-19T03:41:51.023Z,36.60
2023-01-19T03:45:10.914Z,36.23
2023-01-19T03:48:28.157Z,35.25
2023-01-19T03:51:47.351Z,34.68
2023-01-19T03:55:04.695Z,36.33
2023-01-19T03:58:21.299Z,35.93
2023-01-19T04:01:37.785Z,34.18
2023-01-19T04:04:54.260Z,33.05
2023-01-19T04:08:14.485Z,31.05
2023-01-19T04:11:34.115Z,33.90
2023-01-19T04:14:50.493Z,32.58
2023-01-19T04:18:09.445Z,33.83
2023-01-19T04:21:27.178Z,31.18
2023-01-19T04:24:43.918Z,30.33
2023-01-19T04:28:03.382Z,30.60
2023-01-19T04:31:20.096Z,30.28
2023-01-19T04:34:36.295Z,31.90
2023-01-19T04:37:52.638Z,32.50
2023-01-19T04:41:09.021Z,30.48
2023-01-19T04:44:25.242Z,31.73
2023-01-19T04:47:43.313Z,31.53
2023-01-19T04:51:00.763Z,30.83
2023-01-19T04:54:17.100Z,31.33
2023-01-19T04:57:33.358Z,32.80
2023-01-19T05:00:49.734Z,29.43
2023-01-19T05:04:09.252Z,30.88
2023-01-19T05:10:39.101Z,31.35
2023-01-19T05:13:55.264Z,31.83
2023-01-19T05:17:11.466Z,31.75
2023-01-19T05:20:28.250Z,31.58
2023-01-19T05:23:44.453Z,30.90
2023-01-19T05:27:01.010Z,32.45
2023-01-19T05:30:20.340Z,36.93
2023-01-19T05:33:36.725Z,37.30
2023-01-19T05:36:53.356Z,35.90
2023-01-19T05:40:09.920Z,36.20
2023-01-19T05:43:28.687Z,38.80
2023-01-19T05:46:45.257Z,38.13
2023-01-19T05:50:04.651Z,39.20
2023-01-19T05:53:21.473Z,38.48
2023-01-19T05:56:39.517Z,39.15
2023-01-19T05:59:55.917Z,39.10
2023-01-19T06:03:12.066Z,39.13
2023-01-19T06:06:28.488Z,39.15
2023-01-19T06:09:44.931Z,39.50
2023-01-19T06:13:01.607Z,40.65
2023-01-19T06:16:20.065Z,41.78
2023-01-19T06:19:37.648Z,40.38
2023-01-19T06:22:54.691Z,38.85
2023-01-19T06:26:11.688Z,39.70
2023-01-19T06:29:29.447Z,36.73
2023-01-19T06:32:46.151Z,37.30
2023-01-19T06:36:03.326Z,36.98
2023-01-19T06:39:20.858Z,34.10
2023-01-19T06:42:38.320Z,35.83
2023-01-19T06:45:56.979Z,36.28
2023-01-19T06:49:13.522Z,37.83
2023-01-19T06:52:29.981Z,39.80
2023-01-19T06:55:46.278Z,39.23
2023-01-19T06:59:02.927Z,37.65
2023-01-19T07:02:26.913Z,39.85
2023-01-19T07:05:41.952Z,37.88
2023-01-19T07:08:58.758Z,36.80
2023-01-19T07:12:25.395Z,38.48
2023-01-19T07:18:59.535Z,38.78
2023-01-19T07:22:16.206Z,38.48
2023-01-19T07:25:49.749Z,36.25
2023-01-19T07:29:08.010Z,37.53
2023-01-19T07:32:27.990Z,37.53
2023-01-19T07:35:44.244Z,38.55
2023-01-19T07:39:01.152Z,36.23
2023-01-19T07:42:21.202Z,35.83
2023-01-19T07:45:38.014Z,37.93
2023-01-19T07:49:07.438Z,37.83
2023-01-19T07:52:24.654Z,37.33
2023-01-19T07:55:41.339Z,43.05
2023-01-19T07:59:00.205Z,44.80
2023-01-19T08:02:20.356Z,43.70
2023-01-19T08:05:37.735Z,47.75
2023-01-19T08:08:55.447Z,47.53
2023-01-19T08:12:12.979Z,46.60
2023-01-19T08:15:30.861Z,45.08
2023-01-19T08:18:47.249Z,44.35
2023-01-19T08:22:12.171Z,42.03
2023-01-19T08:25:30.229Z,93.00
2023-01-19T08:28:46.465Z,45.08
2023-01-19T08:32:19.379Z,41.65
2023-01-19T08:35:51.065Z,39.48
2023-01-19T08:39:13.218Z,36.28
2023-01-19T08:42:32.737Z,36.60
2023-01-19T08:45:54.287Z,36.40
2023-01-19T08:49:10.633Z,35.85
2023-01-19T08:52:30.162Z,37.73
2023-01-19T08:55:47.289Z,38.20
2023-01-19T08:59:09.967Z,38.23
2023-01-19T09:02:27.807Z,42.80
2023-01-19T09:05:46.468Z,42.50
2023-01-19T09:09:02.819Z,43.25
2023-01-19T09:12:19.228Z,49.40
2023-01-19T09:15:38.390Z,40.75
2023-01-19T09:18:54.892Z,40.30
2023-01-19T09:22:11.032Z,41.73
2023-01-19T09:25:27.518Z,43.33
2023-01-19T09:28:44.987Z,42.50
2023-01-19T09:32:01.086Z,41.48
2023-01-19T09:35:18.782Z,39.55
2023-01-19T09:38:36.603Z,43.58
2023-01-19T09:41:57.413Z,40.58
2023-01-19T09:45:20.896Z,42.33
2023-01-19T09:48:50.586Z,41.70
2023-01-19T09:52:08.897Z,43.10
2023-01-19T09:55:31.554Z,41.70
2023-01-19T09:58:51.176Z,41.38
2023-01-19T10:05:39.549Z,46.28
2023-01-19T10:09:01.015Z,47.70
2023-01-19T10:12:24.081Z,46.98
2023-01-19T10:15:55.839Z,43.80
2023-01-19T10:19:23.553Z,45.63
2023-01-19T10:22:44.040Z,45.18
2023-01-19T10:26:01.109Z,40.03
2023-01-19T10:29:24.218Z,40.33
2023-01-19T10:32:47.957Z,38.25
2023-01-19T10:36:04.645Z,37.63
2023-01-19T10:39:24.517Z,38.40
2023-01-19T10:42:41.129Z,36.05
2023-01-19T10:45:59.816Z,38.38
2023-01-19T10:49:30.913Z,36.00
2023-01-19T10:52:50.462Z,32.80
2023-01-19T10:56:25.995Z,34.13
2023-01-19T10:59:46.771Z,33.68
2023-01-19T11:03:04.197Z,34.35
2023-01-19T11:06:37.257Z,34.25
2023-01-19T11:09:54.586Z,30.65
2023-01-19T11:13:17.349Z,30.68
2023-01-19T11:16:42.668Z,32.20
2023-01-19T11:20:10.271Z,31.83
2023-01-19T11:23:38.403Z,31.50
2023-01-19T11:27:01.688Z,31.90
2023-01-19T11:30:26.846Z,31.23
2023-01-19T11:33:51.897Z,30.43
2023-01-19T11:37:11.583Z,40.78
2023-01-19T11:40:28.808Z,32.25
2023-01-19T11:43:49.360Z,30.30
2023-01-19T11:47:10.625Z,28.45
2023-01-19T11:50:39.464Z,30.25
2023-01-19T11:54:00.436Z,29.35
2023-01-19T11:57:22.566Z,27.90
2023-01-19T12:00:46.691Z,27.90
2023-01-19T12:04:10.040Z,27.08
2023-01-19T12:10:47.278Z,26.33
2023-01-19T12:14:06.414Z,26.33
2023-01-19T12:17:30.014Z,28.23
2023-01-19T12:20:49.685Z,26.03
2023-01-19T12:24:19.941Z,28.28
2023-01-19T12:27:48.786Z,27.58
2023-01-19T12:31:09.952Z,24.83
2023-01-19T12:34:49.792Z,24.65
2023-01-19T12:41:40.520Z,24.98
2023-01-19T12:45:00.687Z,26.03
2023-01-19T12:48:32.416Z,26.65
2023-01-19T12:51:49.488Z,26.00
2023-01-19T12:55:23.861Z,27.55
2023-01-19T12:58:42.048Z,27.28
2023-01-19T13:02:56.453Z,28.90
2023-01-19T13:09:44.015Z,28.83
2023-01-19T13:13:25.393Z,28.58
2023-01-19T13:17:17.462Z,30.08
2023-01-19T13:20:47.164Z,32.98
2023-01-19T13:24:08.009Z,30.70
2023-01-19T13:27:43.325Z,31.15
2023-01-19T13:31:08.022Z,33.68
2023-01-19T13:34:28.793Z,36.33
2023-01-19T13:41:03.860Z,39.85
2023-01-19T13:44:24.586Z,43.65
2023-01-19T13:47:47.518Z,41.33
2023-01-19T13:56:31.135Z,43.48
2023-01-19T13:59:47.600Z,42.48
2023-01-19T14:03:08.047Z,44.53
2023-01-19T14:06:47.645Z,44.23
2023-01-19T14:10:20.524Z,43.25
2023-01-19T14:13:41.809Z,43.00
2023-01-19T14:17:00.225Z,42.83
2023-01-19T14:20:38.130Z,43.30
2023-01-19T14:24:00.139Z,41.40
2023-01-19T14:27:29.541Z,44.00
2023-01-19T14:31:00.012Z,42.00
2023-01-19T14:34:45.012Z,40.00
2023-01-19T14:41:17.852Z,37.98
2023-01-19T14:44:40.916Z,39.55
2023-01-19T14:48:07.257Z,39.88
2023-01-19T14:51:27.964Z,37.95
2023-01-19T14:56:00.555Z,36.50
2023-01-19T15:04:12.947Z,37.85
2023-01-19T15:10:50.372Z,35.30
2023-01-19T15:14:07.661Z,34.88
2023-01-19T15:17:30.916Z,33.63
2023-01-19T15:20:47.189Z,33.80
2023-01-19T15:27:24.585Z,31.80
2023-01-19T15:30:43.989Z,32.00
2023-01-19T15:34:00.947Z,30.10
2023-01-19T15:40:46.932Z,31.20
2023-01-19T15:44:11.165Z,34.43
2023-01-19T15:47:33.502Z,32.58
2023-01-19T15:54:08.859Z,34.75
2023-01-19T15:57:26.338Z,35.25
2023-01-19T16:00:45.274Z,32.95
2023-01-19T16:04:01.698Z,33.28
2023-01-19T16:07:19.077Z,33.08
2023-01-19T16:10:35.650Z,31.30
2023-01-19T16:13:56.276Z,31.77
2023-01-19T16:17:13.039Z,30.45
2023-01-19T16:20:29.777Z,30.85
2023-01-19T16:23:46.332Z,30.45
2023-01-19T16:27:04.811Z,29.08
2023-01-19T16:30:25.053Z,29.90
2023-01-19T16:33:41.582Z,27.90
2023-01-19T16:37:01.007Z,28.28
2023-01-19T16:40:21.161Z,28.65
2023-01-19T16:43:37.456Z,27.88
2023-01-19T16:46:55.363Z,28.68
2023-01-19T16:50:14.127Z,26.83
2023-01-19T16:53:30.519Z,26.73
2023-01-19T16:56:47.277Z,27.45
2023-01-19T17:00:03.590Z,26.68
2023-01-19T17:03:20.390Z,25.93
2023-01-19T17:06:36.803Z,23.05
2023-01-19T17:09:53.016Z,24.90
2023-01-19T17:13:09.550Z,23.78
2023-01-19T17:16:26.768Z,23.53
2023-01-19T17:19:45.845Z,22.18
2023-01-19T17:23:02.491Z,23.70
2023-01-19T17:26:21.915Z,23.65
2023-01-19T17:29:40.193Z,24.23
2023-01-19T17:33:03.411Z,27.10
2023-01-19T17:36:25.900Z,24.58
2023-01-19T17:39:44.063Z,27.13
2023-01-19T17:43:00.542Z,25.00
2023-01-19T17:46:22.123Z,25.13
2023-01-19T17:49:38.861Z,25.00
2023-01-19T17:52:57.257Z,26.55
2023-01-19T17:56:17.111Z,24.55
2023-01-19T17:59:35.784Z,25.65
2023-01-19T18:02:56.872Z,24.40
2023-01-19T18:06:14.797Z,25.95
2023-01-19T18:09:32.786Z,25.63
2023-01-19T18:12:50.518Z,23.43
2023-01-19T18:16:14.721Z,25.00
2023-01-19T18:19:32.039Z,25.58
2023-01-19T18:22:48.992Z,23.58
2023-01-19T18:26:15.245Z,24.60
2023-01-19T18:29:31.910Z,23.95
2023-01-19T18:32:48.383Z,24.60
2023-01-19T18:36:08.435Z,52.90
2023-01-19T18:39:25.052Z,26.93
2023-01-19T18:42:51.027Z,25.65
2023-01-19T18:46:09.384Z,25.03
2023-01-19T18:49:33.065Z,25.73
2023-01-19T18:52:58.440Z,25.98
2023-01-19T18:56:16.996Z,26.73
2023-01-19T18:59:37.036Z,26.65
2023-01-19T19:06:12.873Z,26.68
2023-01-19T19:09:32.358Z,27.45
2023-01-19T19:12:51.642Z,26.90
2023-01-19T19:16:18.933Z,27.68
2023-01-19T19:19:41.920Z,28.13
2023-01-19T19:22:58.751Z,29.75
2023-01-19T19:26:18.671Z,30.18
2023-01-19T19:29:44.908Z,33.68
2023-01-19T19:33:08.859Z,34.75
2023-01-19T19:36:26.021Z,32.63
2023-01-19T19:39:47.334Z,34.00
2023-01-19T19:43:08.472Z,33.95
2023-01-19T19:46:30.008Z,35.28
2023-01-19T19:49:49.302Z,35.08
2023-01-19T19:53:12.712Z,34.03
2023-01-19T19:56:31.571Z,37.30
2023-01-19T19:59:49.284Z,37.28
2023-01-19T20:03:05.630Z,37.05
2023-01-19T20:06:30.808Z,38.38
2023-01-19T20:09:48.387Z,39.83
2023-01-19T20:13:09.229Z,40.48
2023-01-19T20:16:29.080Z,39.90
2023-01-19T20:19:48.571Z,57.90
2023-01-19T20:23:05.478Z,38.13
2023-01-19T20:26:27.470Z,37.63
2023-01-19T20:29:51.467Z,36.95
2023-01-19T20:33:11.828Z,37.48
2023-01-19T20:36:36.389Z,37.85
2023-01-19T20:39:57.443Z,38.30
2023-01-19T20:43:16.107Z,36.63
2023-01-19T20:46:37.336Z,35.28
2023-01-19T20:49:54.684Z,36.48
2023-01-19T20:53:11.289Z,35.55
2023-01-19T20:56:28.284Z,33.78
2023-01-19T20:59:45.901Z,35.50
2023-01-19T21:03:02.511Z,33.43
2023-01-19T21:06:19.857Z,34.70
2023-01-19T21:09:36.598Z,35.25
2023-01-19T21:12:53.095Z,33.78
2023-01-19T21:16:12.492Z,34.48
2023-01-19T21:19:29.063Z,33.95
2023-01-19T21:22:46.467Z,34.70
2023-01-19T21:26:05.793Z,34.78
2023-01-19T21:32:36.132Z,36.30
2023-01-19T21:36:00.210Z,36.70
2023-01-19T21:39:17.510Z,36.43
2023-01-19T21:42:34.417Z,35.53
2023-01-19T21:45:51.595Z,36.33
2023-01-19T21:49:11.577Z,37.08
2023-01-19T21:52:27.785Z,35.83
2023-01-19T21:55:46.551Z,37.85
2023-01-19T21:59:04.167Z,38.33
2023-01-19T22:02:37.740Z,37.68
2023-01-19T22:05:44.109Z,37.95
2023-01-19T22:09:01.532Z,38.18
2023-01-19T22:12:18.224Z,39.85
2023-01-19T22:15:35.980Z,37.75
2023-01-19T22:18:59.547Z,39.50
2023-01-19T22:22:15.912Z,39.28
2023-01-19T22:25:32.872Z,38.23
2023-01-19T22:28:50.838Z,39.08
2023-01-19T22:32:07.007Z,39.43
2023-01-19T22:35:25.109Z,38.95
2023-01-19T22:38:41.488Z,40.98
2023-01-19T22:41:58.079Z,42.30
2023-01-19T22:45:16.533Z,41.08
2023-01-19T22:48:32.888Z,39.10
2023-01-19T22:51:49.320Z,40.23
2023-01-19T22:55:05.659Z,40.65
2023-01-19T22:58:22.310Z,40.28
2023-01-19T23:01:42.552Z,39.63
2023-01-19T23:04:59.340Z,39.80
2023-01-19T23:08:16.345Z,37.18
2023-01-19T23:11:36.092Z,36.98
2023-01-19T23:14:53.662Z,36.63
2023-01-19T23:18:09.896Z,36.98
2023-01-19T23:21:28.886Z,35.13
2023-01-19T23:24:45.496Z,35.73
2023-01-19T23:28:01.813Z,35.78
2023-01-19T23:31:28.624Z,35.13
2023-01-19T23:34:45.310Z,36.80
2023-01-19T23:38:01.475Z,34.28
2023-01-19T23:41:18.798Z,34.30
2023-01-19T23:44:35.006Z,34.53
2023-01-19T23:47:51.593Z,34.33
2023-01-19T23:51:12.499Z,32.58
2023-01-19T23:54:28.834Z,30.80
2023-01-19T23:57:45.138Z,30.88
